sensor_id;sensor_type;location;lat;lon;timestamp;temperature;humidity
30063;DHT22;16889;67.864;24.990;2023-02-28T00:04:18;-6.00;99.90
30063;DHT22;16889;67.864;24.990;2023-02-28T00:09:04;-5.90;99.90
30063;DHT22;16889;67.864;24.990;2023-02-28T00:13:50;-5.80;99.90
30063;DHT22;16889;67.864;24.990;2023-02-28T00:18:37;-6.00;99.90
30063;DHT22;16889;67.864;24.990;2023-02-28T00:23:24;-6.00;99.90
30063;DHT22;16889;67.864;24.990;2023-02-28T00:28:10;-6.00;99.90
30063;DHT22;16889;67.864;24.990;2023-02-28T00:32:56;-6.10;99.90
30063;DHT22;16889;67.864;24.990;2023-02-28T00:37:42;-6.10;99.90
30063;DHT22;16889;67.864;24.990;2023-02-28T00:42:28;-6.30;99.90
30063;DHT22;16889;67.864;24.990;2023-02-28T00:47:14;-6.20;99.90
30063;DHT22;16889;67.864;24.990;2023-02-28T00:52:00;-6.30;99.90
30063;DHT22;16889;67.864;24.990;2023-02-28T00:56:46;-6.30;99.90
30063;DHT22;16889;67.864;24.990;2023-02-28T01:01:32;-6.30;99.90
30063;DHT22;16889;67.864;24.990;2023-02-28T01:06:18;-6.40;99.90
30063;DHT22;16889;67.864;24.990;2023-02-28T01:11:11;-6.30;99.90
30063;DHT22;16889;67.864;24.990;2023-02-28T01:15:58;-6.40;99.90
30063;DHT22;16889;67.864;24.990;2023-02-28T01:20:44;-6.40;99.90
30063;DHT22;16889;67.864;24.990;2023-02-28T01:25:34;-6.30;99.90
30063;DHT22;16889;67.864;24.990;2023-02-28T01:30:20;-6.30;99.90
30063;DHT22;16889;67.864;24.990;2023-02-28T01:35:06;-6.20;99.90
30063;DHT22;16889;67.864;24.990;2023-02-28T01:39:52;-6.30;99.90
30063;DHT22;16889;67.864;24.990;2023-02-28T01:44:58;-6.30;99.90
30063;DHT22;16889;67.864;24.990;2023-02-28T01:49:44;-6.30;99.90
30063;DHT22;16889;67.864;24.990;2023-02-28T01:54:32;-6.20;99.90
30063;DHT22;16889;67.864;24.990;2023-02-28T02:00:09;-6.10;99.90
30063;DHT22;16889;67.864;24.990;2023-02-28T02:04:42;-6.10;99.90
30063;DHT22;16889;67.864;24.990;2023-02-28T02:09:31;-5.90;99.90
30063;DHT22;16889;67.864;24.990;2023-02-28T02:35:29;-5.90;99.90
30063;DHT22;16889;67.864;24.990;2023-02-28T02:40:19;-5.70;99.90
30063;DHT22;16889;67.864;24.990;2023-02-28T02:45:21;-5.70;99.90
30063;DHT22;16889;67.864;24.990;2023-02-28T02:50:19;-5.80;99.90
30063;DHT22;16889;67.864;24.990;2023-02-28T02:55:08;-5.80;99.90
30063;DHT22;16889;67.864;24.990;2023-02-28T02:59:57;-5.90;99.90
30063;DHT22;16889;67.864;24.990;2023-02-28T03:04:52;-5.80;99.90
30063;DHT22;16889;67.864;24.990;2023-02-28T03:09:39;-5.90;99.90
30063;DHT22;16889;67.864;24.990;2023-02-28T03:15:07;-5.90;99.90
30063;DHT22;16889;67.864;24.990;2023-02-28T03:29:48;-5.70;99.90
30063;DHT22;16889;67.864;24.990;2023-02-28T03:34:45;-5.80;99.90
30063;DHT22;16889;67.864;24.990;2023-02-28T03:40:05;-5.90;99.90
30063;DHT22;16889;67.864;24.990;2023-02-28T03:45:04;-5.90;99.90
30063;DHT22;16889;67.864;24.990;2023-02-28T03:49:57;-5.80;99.90
30063;DHT22;16889;67.864;24.990;2023-02-28T03:54:50;-5.80;99.90
30063;DHT22;16889;67.864;24.990;2023-02-28T03:59:47;-5.80;99.90
30063;DHT22;16889;67.864;24.990;2023-02-28T04:04:34;-5.80;99.90
30063;DHT22;16889;67.864;24.990;2023-02-28T04:09:20;-5.90;99.90
30063;DHT22;16889;67.864;24.990;2023-02-28T04:14:07;-5.80;99.90
30063;DHT22;16889;67.864;24.990;2023-02-28T04:18:53;-5.80;99.90
30063;DHT22;16889;67.864;24.990;2023-02-28T04:23:39;-5.70;99.90
30063;DHT22;16889;67.864;24.990;2023-02-28T04:28:25;-5.60;99.90
30063;DHT22;16889;67.864;24.990;2023-02-28T04:33:11;-5.70;99.90
30063;DHT22;16889;67.864;24.990;2023-02-28T04:37:57;-5.70;99.90
30063;DHT22;16889;67.864;24.990;2023-02-28T04:42:43;-5.70;99.90
30063;DHT22;16889;67.864;24.990;2023-02-28T04:47:29;-5.70;99.90
30063;DHT22;16889;67.864;24.990;2023-02-28T04:52:15;-5.70;99.90
30063;DHT22;16889;67.864;24.990;2023-02-28T04:57:01;-5.70;99.90
30063;DHT22;16889;67.864;24.990;2023-02-28T05:01:48;-5.80;99.90
30063;DHT22;16889;67.864;24.990;2023-02-28T05:06:34;-5.80;99.90
30063;DHT22;16889;67.864;24.990;2023-02-28T05:11:25;-5.70;99.90
30063;DHT22;16889;67.864;24.990;2023-02-28T05:16:11;-5.80;99.90
30063;DHT22;16889;67.864;24.990;2023-02-28T05:20:57;-5.80;99.90
30063;DHT22;16889;67.864;24.990;2023-02-28T05:25:43;-5.80;99.90
30063;DHT22;16889;67.864;24.990;2023-02-28T05:30:30;-5.70;99.90
30063;DHT22;16889;67.864;24.990;2023-02-28T05:35:17;-5.90;99.90
30063;DHT22;16889;67.864;24.990;2023-02-28T05:40:05;-5.80;99.90
30063;DHT22;16889;67.864;24.990;2023-02-28T05:44:58;-5.70;99.90
30063;DHT22;16889;67.864;24.990;2023-02-28T05:49:44;-5.70;99.90
30063;DHT22;16889;67.864;24.990;2023-02-28T05:54:30;-5.60;99.90
30063;DHT22;16889;67.864;24.990;2023-02-28T05:59:17;-5.60;99.90
30063;DHT22;16889;67.864;24.990;2023-02-28T06:04:06;-5.60;99.90
30063;DHT22;16889;67.864;24.990;2023-02-28T06:08:53;-5.50;99.90
30063;DHT22;16889;67.864;24.990;2023-02-28T06:13:39;-5.50;99.90
30063;DHT22;16889;67.864;24.990;2023-02-28T06:18:25;-5.50;99.90
30063;DHT22;16889;67.864;24.990;2023-02-28T06:23:11;-5.50;99.90
30063;DHT22;16889;67.864;24.990;2023-02-28T06:27:57;-5.60;99.90
30063;DHT22;16889;67.864;24.990;2023-02-28T06:32:44;-5.60;99.90
30063;DHT22;16889;67.864;24.990;2023-02-28T06:37:32;-5.60;99.90
30063;DHT22;16889;67.864;24.990;2023-02-28T06:42:18;-5.40;99.90
30063;DHT22;16889;67.864;24.990;2023-02-28T06:47:06;-5.40;99.90
30063;DHT22;16889;67.864;24.990;2023-02-28T06:51:52;-5.40;99.90
30063;DHT22;16889;67.864;24.990;2023-02-28T06:56:38;-5.30;99.90
30063;DHT22;16889;67.864;24.990;2023-02-28T07:01:24;-5.20;99.90
30063;DHT22;16889;67.864;24.990;2023-02-28T07:06:10;-5.10;99.90
30063;DHT22;16889;67.864;24.990;2023-02-28T07:10:57;-5.10;99.90
30063;DHT22;16889;67.864;24.990;2023-02-28T07:15:43;-5.10;99.90
30063;DHT22;16889;67.864;24.990;2023-02-28T07:20:30;-5.10;99.90
30063;DHT22;16889;67.864;24.990;2023-02-28T07:25:16;-5.00;99.90
30063;DHT22;16889;67.864;24.990;2023-02-28T07:30:02;-5.00;99.90
30063;DHT22;16889;67.864;24.990;2023-02-28T07:34:51;-5.00;99.90
30063;DHT22;16889;67.864;24.990;2023-02-28T07:39:36;-4.90;99.90
30063;DHT22;16889;67.864;24.990;2023-02-28T07:44:22;-4.80;99.90
30063;DHT22;16889;67.864;24.990;2023-02-28T07:49:08;-4.70;99.90
30063;DHT22;16889;67.864;24.990;2023-02-28T07:53:55;-4.50;99.90
30063;DHT22;16889;67.864;24.990;2023-02-28T07:58:41;-4.50;99.90
30063;DHT22;16889;67.864;24.990;2023-02-28T08:03:27;-4.40;99.90
30063;DHT22;16889;67.864;24.990;2023-02-28T08:08:14;-4.40;99.90
30063;DHT22;16889;67.864;24.990;2023-02-28T08:13:00;-4.40;99.90
30063;DHT22;16889;67.864;24.990;2023-02-28T08:17:46;-4.30;99.90
30063;DHT22;16889;67.864;24.990;2023-02-28T08:22:32;-4.20;99.90
30063;DHT22;16889;67.864;24.990;2023-02-28T08:27:18;-3.60;99.90
30063;DHT22;16889;67.864;24.990;2023-02-28T08:32:05;-3.50;99.90
30063;DHT22;16889;67.864;24.990;2023-02-28T08:36:51;-3.70;99.90
30063;DHT22;16889;67.864;24.990;2023-02-28T08:41:38;-3.80;99.90
30063;DHT22;16889;67.864;24.990;2023-02-28T08:46:25;-3.70;99.90
30063;DHT22;16889;67.864;24.990;2023-02-28T08:51:13;-3.70;99.90
30063;DHT22;16889;67.864;24.990;2023-02-28T08:56:10;-3.60;99.90
30063;DHT22;16889;67.864;24.990;2023-02-28T09:00:57;-3.60;99.90
30063;DHT22;16889;67.864;24.990;2023-02-28T09:05:57;-3.50;99.90
30063;DHT22;16889;67.864;24.990;2023-02-28T09:10:44;-3.50;99.90
30063;DHT22;16889;67.864;24.990;2023-02-28T09:15:30;-3.30;99.90
30063;DHT22;16889;67.864;24.990;2023-02-28T09:20:16;-3.10;99.90
30063;DHT22;16889;67.864;24.990;2023-02-28T09:25:02;-3.10;99.90
30063;DHT22;16889;67.864;24.990;2023-02-28T09:29:48;-3.10;99.90
30063;DHT22;16889;67.864;24.990;2023-02-28T09:34:34;-2.90;99.90
30063;DHT22;16889;67.864;24.990;2023-02-28T09:39:23;-2.90;99.90
30063;DHT22;16889;67.864;24.990;2023-02-28T09:44:16;-2.80;99.90
30063;DHT22;16889;67.864;24.990;2023-02-28T09:49:08;-2.80;99.90
30063;DHT22;16889;67.864;24.990;2023-02-28T09:53:57;-2.80;99.90
30063;DHT22;16889;67.864;24.990;2023-02-28T10:09:54;-2.40;99.90
30063;DHT22;16889;67.864;24.990;2023-02-28T10:14:33;-2.40;99.90
30063;DHT22;16889;67.864;24.990;2023-02-28T10:19:21;-2.60;99.90
30063;DHT22;16889;67.864;24.990;2023-02-28T10:24:23;-2.60;99.90
30063;DHT22;16889;67.864;24.990;2023-02-28T10:29:15;-2.50;99.90
30063;DHT22;16889;67.864;24.990;2023-02-28T10:34:04;-2.50;99.90
30063;DHT22;16889;67.864;24.990;2023-02-28T10:38:51;-2.50;99.90
30063;DHT22;16889;67.864;24.990;2023-02-28T10:43:40;-2.50;99.90
30063;DHT22;16889;67.864;24.990;2023-02-28T10:53:37;-2.40;99.90
30063;DHT22;16889;67.864;24.990;2023-02-28T10:58:26;-2.40;99.90
30063;DHT22;16889;67.864;24.990;2023-02-28T11:03:32;-2.40;99.90
30063;DHT22;16889;67.864;24.990;2023-02-28T11:08:18;-2.30;99.90
30063;DHT22;16889;67.864;24.990;2023-02-28T11:13:05;-2.10;99.90
30063;DHT22;16889;67.864;24.990;2023-02-28T11:23:00;-2.20;99.90
30063;DHT22;16889;67.864;24.990;2023-02-28T11:27:50;-2.30;99.90
30063;DHT22;16889;67.864;24.990;2023-02-28T11:32:36;-2.40;99.90
30063;DHT22;16889;67.864;24.990;2023-02-28T11:37:22;-2.30;99.90
30063;DHT22;16889;67.864;24.990;2023-02-28T11:47:48;-2.30;99.90
30063;DHT22;16889;67.864;24.990;2023-02-28T11:52:43;-2.30;99.90
30063;DHT22;16889;67.864;24.990;2023-02-28T12:02:59;-2.40;99.90
30063;DHT22;16889;67.864;24.990;2023-02-28T12:08:23;-2.40;99.90
30063;DHT22;16889;67.864;24.990;2023-02-28T12:13:21;-2.30;99.90
30063;DHT22;16889;67.864;24.990;2023-02-28T12:28:10;-2.50;99.90
30063;DHT22;16889;67.864;24.990;2023-02-28T12:33:07;-2.50;99.90
30063;DHT22;16889;67.864;24.990;2023-02-28T12:43:04;-2.10;99.90
30063;DHT22;16889;67.864;24.990;2023-02-28T12:48:00;-1.90;99.90
30063;DHT22;16889;67.864;24.990;2023-02-28T12:53:06;-2.00;99.90
30063;DHT22;16889;67.864;24.990;2023-02-28T13:08:59;-2.10;99.90
30063;DHT22;16889;67.864;24.990;2023-02-28T13:13:46;-2.10;99.90
30063;DHT22;16889;67.864;24.990;2023-02-28T13:18:38;-2.10;99.90
30063;DHT22;16889;67.864;24.990;2023-02-28T13:29:00;-2.30;99.90
30063;DHT22;16889;67.864;24.990;2023-02-28T13:38:42;-2.40;99.90
30063;DHT22;16889;67.864;24.990;2023-02-28T13:48:53;-2.40;99.90
30063;DHT22;16889;67.864;24.990;2023-02-28T13:53:57;-2.40;99.90
30063;DHT22;16889;67.864;24.990;2023-02-28T14:09:28;-2.50;99.90
30063;DHT22;16889;67.864;24.990;2023-02-28T14:19:30;-2.50;99.90
30063;DHT22;16889;67.864;24.990;2023-02-28T14:39:41;-2.60;99.90
30063;DHT22;16889;67.864;24.990;2023-02-28T14:44:27;-2.70;99.90
30063;DHT22;16889;67.864;24.990;2023-02-28T14:49:29;-2.70;99.90
30063;DHT22;16889;67.864;24.990;2023-02-28T14:54:18;-2.60;99.90
30063;DHT22;16889;67.864;24.990;2023-02-28T15:04:25;-2.70;99.90
30063;DHT22;16889;67.864;24.990;2023-02-28T15:09:18;-2.80;99.90
30063;DHT22;16889;67.864;24.990;2023-02-28T15:14:04;-2.70;99.90
30063;DHT22;16889;67.864;24.990;2023-02-28T15:18:57;-2.70;99.90
30063;DHT22;16889;67.864;24.990;2023-02-28T15:23:56;-2.60;99.90
30063;DHT22;16889;67.864;24.990;2023-02-28T15:28:44;-2.60;99.90
30063;DHT22;16889;67.864;24.990;2023-02-28T15:33:32;-2.60;99.90
30063;DHT22;16889;67.864;24.990;2023-02-28T15:38:23;-2.70;99.90
30063;DHT22;16889;67.864;24.990;2023-02-28T15:43:18;-2.70;99.90
30063;DHT22;16889;67.864;24.990;2023-02-28T15:48:10;-2.80;99.90
30063;DHT22;16889;67.864;24.990;2023-02-28T15:53:00;-2.80;99.90
30063;DHT22;16889;67.864;24.990;2023-02-28T15:57:51;-2.70;99.90
30063;DHT22;16889;67.864;24.990;2023-02-28T16:02:39;-2.70;99.90
30063;DHT22;16889;67.864;24.990;2023-02-28T16:07:25;-2.80;99.90
30063;DHT22;16889;67.864;24.990;2023-02-28T16:12:11;-2.70;99.90
30063;DHT22;16889;67.864;24.990;2023-02-28T16:17:03;-2.70;99.90
30063;DHT22;16889;67.864;24.990;2023-02-28T16:21:50;-2.70;99.90
30063;DHT22;16889;67.864;24.990;2023-02-28T16:26:37;-2.70;99.90
30063;DHT22;16889;67.864;24.990;2023-02-28T16:31:25;-2.70;99.90
30063;DHT22;16889;67.864;24.990;2023-02-28T16:36:16;-2.70;99.90
30063;DHT22;16889;67.864;24.990;2023-02-28T16:41:03;-2.80;99.90
30063;DHT22;16889;67.864;24.990;2023-02-28T16:45:49;-2.80;99.90
30063;DHT22;16889;67.864;24.990;2023-02-28T16:50:40;-2.80;99.90
30063;DHT22;16889;67.864;24.990;2023-02-28T16:55:26;-2.90;99.90
30063;DHT22;16889;67.864;24.990;2023-02-28T17:00:13;-2.80;99.90
30063;DHT22;16889;67.864;24.990;2023-02-28T17:04:59;-3.00;99.90
30063;DHT22;16889;67.864;24.990;2023-02-28T17:09:45;-3.10;99.90
30063;DHT22;16889;67.864;24.990;2023-02-28T17:14:31;-3.20;99.90
30063;DHT22;16889;67.864;24.990;2023-02-28T17:19:17;-3.30;99.90
30063;DHT22;16889;67.864;24.990;2023-02-28T17:24:04;-3.20;99.90
30063;DHT22;16889;67.864;24.990;2023-02-28T17:28:52;-3.10;99.90
30063;DHT22;16889;67.864;24.990;2023-02-28T17:33:41;-3.10;99.90
30063;DHT22;16889;67.864;24.990;2023-02-28T17:38:27;-3.10;99.90
30063;DHT22;16889;67.864;24.990;2023-02-28T17:43:13;-3.10;99.90
30063;DHT22;16889;67.864;24.990;2023-02-28T17:48:00;-3.20;99.90
30063;DHT22;16889;67.864;24.990;2023-02-28T17:52:46;-3.30;99.90
30063;DHT22;16889;67.864;24.990;2023-02-28T17:57:34;-3.30;99.90
30063;DHT22;16889;67.864;24.990;2023-02-28T18:02:20;-3.30;99.90
30063;DHT22;16889;67.864;24.990;2023-02-28T18:07:10;-3.40;99.90
30063;DHT22;16889;67.864;24.990;2023-02-28T18:11:57;-3.50;99.90
30063;DHT22;16889;67.864;24.990;2023-02-28T18:16:45;-3.50;99.90
30063;DHT22;16889;67.864;24.990;2023-02-28T18:21:32;-3.60;99.90
30063;DHT22;16889;67.864;24.990;2023-02-28T18:26:19;-3.80;99.90
30063;DHT22;16889;67.864;24.990;2023-02-28T18:31:07;-3.90;99.90
30063;DHT22;16889;67.864;24.990;2023-02-28T18:35:56;-3.90;99.90
30063;DHT22;16889;67.864;24.990;2023-02-28T18:40:47;-4.10;99.90
30063;DHT22;16889;67.864;24.990;2023-02-28T18:45:37;-4.10;99.90
30063;DHT22;16889;67.864;24.990;2023-02-28T18:50:24;-4.10;99.90
30063;DHT22;16889;67.864;24.990;2023-02-28T18:55:10;-4.20;99.90
30063;DHT22;16889;67.864;24.990;2023-02-28T18:59:56;-4.20;99.90
30063;DHT22;16889;67.864;24.990;2023-02-28T19:04:42;-4.40;99.90
30063;DHT22;16889;67.864;24.990;2023-02-28T19:09:28;-4.40;99.90
30063;DHT22;16889;67.864;24.990;2023-02-28T19:14:14;-4.30;99.90
30063;DHT22;16889;67.864;24.990;2023-02-28T19:19:00;-4.30;99.90
30063;DHT22;16889;67.864;24.990;2023-02-28T19:23:46;-4.40;99.90
30063;DHT22;16889;67.864;24.990;2023-02-28T19:28:33;-4.50;99.90
30063;DHT22;16889;67.864;24.990;2023-02-28T19:33:19;-4.60;99.90
30063;DHT22;16889;67.864;24.990;2023-02-28T19:38:06;-4.70;99.90
30063;DHT22;16889;67.864;24.990;2023-02-28T19:42:52;-4.80;99.90
30063;DHT22;16889;67.864;24.990;2023-02-28T19:47:40;-4.70;99.90
30063;DHT22;16889;67.864;24.990;2023-02-28T19:52:26;-4.80;99.90
30063;DHT22;16889;67.864;24.990;2023-02-28T19:57:12;-4.80;99.90
30063;DHT22;16889;67.864;24.990;2023-02-28T20:01:58;-4.90;99.90
30063;DHT22;16889;67.864;24.990;2023-02-28T20:06:45;-4.90;99.90
30063;DHT22;16889;67.864;24.990;2023-02-28T20:11:31;-5.10;99.90
30063;DHT22;16889;67.864;24.990;2023-02-28T20:16:17;-5.10;99.90
30063;DHT22;16889;67.864;24.990;2023-02-28T20:21:06;-5.20;99.90
30063;DHT22;16889;67.864;24.990;2023-02-28T20:25:52;-5.30;99.90
30063;DHT22;16889;67.864;24.990;2023-02-28T20:30:38;-5.20;99.90
30063;DHT22;16889;67.864;24.990;2023-02-28T20:35:26;-5.20;99.90
30063;DHT22;16889;67.864;24.990;2023-02-28T20:40:13;-5.20;99.90
30063;DHT22;16889;67.864;24.990;2023-02-28T20:44:59;-5.10;99.90
30063;DHT22;16889;67.864;24.990;2023-02-28T20:49:45;-5.00;99.90
30063;DHT22;16889;67.864;24.990;2023-02-28T20:54:31;-5.00;99.90
30063;DHT22;16889;67.864;24.990;2023-02-28T20:59:21;-5.10;99.90
30063;DHT22;16889;67.864;24.990;2023-02-28T21:04:08;-5.10;99.90
30063;DHT22;16889;67.864;24.990;2023-02-28T21:08:54;-5.20;99.90
30063;DHT22;16889;67.864;24.990;2023-02-28T21:13:42;-5.30;99.90
30063;DHT22;16889;67.864;24.990;2023-02-28T21:18:29;-5.50;99.90
30063;DHT22;16889;67.864;24.990;2023-02-28T21:23:17;-5.50;99.90
30063;DHT22;16889;67.864;24.990;2023-02-28T21:28:03;-5.70;99.90
30063;DHT22;16889;67.864;24.990;2023-02-28T21:32:49;-6.00;99.90
30063;DHT22;16889;67.864;24.990;2023-02-28T21:37:37;-6.20;99.90
30063;DHT22;16889;67.864;24.990;2023-02-28T21:42:23;-6.20;99.90
30063;DHT22;16889;67.864;24.990;2023-02-28T21:47:09;-6.00;99.90
30063;DHT22;16889;67.864;24.990;2023-02-28T21:51:55;-6.00;99.90
30063;DHT22;16889;67.864;24.990;2023-02-28T21:56:41;-6.10;99.90
30063;DHT22;16889;67.864;24.990;2023-02-28T22:01:34;-6.20;99.90
30063;DHT22;16889;67.864;24.990;2023-02-28T22:06:23;-6.30;99.90
30063;DHT22;16889;67.864;24.990;2023-02-28T22:11:11;-6.30;99.90
30063;DHT22;16889;67.864;24.990;2023-02-28T22:16:22;-6.30;99.90
30063;DHT22;16889;67.864;24.990;2023-02-28T22:21:08;-6.30;99.90
30063;DHT22;16889;67.864;24.990;2023-02-28T22:25:55;-6.50;99.90
30063;DHT22;16889;67.864;24.990;2023-02-28T22:30:41;-6.70;99.90
30063;DHT22;16889;67.864;24.990;2023-02-28T22:35:27;-6.90;99.90
30063;DHT22;16889;67.864;24.990;2023-02-28T22:40:13;-7.20;99.90
30063;DHT22;16889;67.864;24.990;2023-02-28T22:44:59;-7.10;99.90
30063;DHT22;16889;67.864;24.990;2023-02-28T22:49:45;-7.10;99.90
30063;DHT22;16889;67.864;24.990;2023-02-28T22:54:31;-7.30;99.90
30063;DHT22;16889;67.864;24.990;2023-02-28T22:59:18;-7.50;99.90
30063;DHT22;16889;67.864;24.990;2023-02-28T23:04:06;-7.40;99.90
30063;DHT22;16889;67.864;24.990;2023-02-28T23:08:56;-7.30;99.90
30063;DHT22;16889;67.864;24.990;2023-02-28T23:13:45;-7.20;99.90
30063;DHT22;16889;67.864;24.990;2023-02-28T23:18:42;-7.20;99.90
30063;DHT22;16889;67.864;24.990;2023-02-28T23:23:28;-7.10;99.90
30063;DHT22;16889;67.864;24.990;2023-02-28T23:28:14;-7.10;99.90
30063;DHT22;16889;67.864;24.990;2023-02-28T23:33:00;-7.00;99.90
30063;DHT22;16889;67.864;24.990;2023-02-28T23:37:46;-6.80;99.90
30063;DHT22;16889;67.864;24.990;2023-02-28T23:42:33;-6.60;99.90
30063;DHT22;16889;67.864;24.990;2023-02-28T23:47:21;-6.40;99.90
30063;DHT22;16889;67.864;24.990;2023-02-28T23:52:07;-6.50;99.90
30063;DHT22;16889;67.864;24.990;2023-02-28T23:56:53;-6.30;99.90
